sensor_id;sensor_type;location;lat;lon;timestamp;temperature;humidity
40932;DHT22;36257;46.052;12.540;2023-06-22T00:00:58;24.10;99.90
40932;DHT22;36257;46.052;12.540;2023-06-22T00:03:25;24.20;99.90
40932;DHT22;36257;46.052;12.540;2023-06-22T00:05:51;24.20;99.90
40932;DHT22;36257;46.052;12.540;2023-06-22T00:08:18;24.20;99.90
40932;DHT22;36257;46.052;12.540;2023-06-22T00:10:44;24.20;99.90
40932;DHT22;36257;46.052;12.540;2023-06-22T00:13:11;24.20;99.90
40932;DHT22;36257;46.052;12.540;2023-06-22T00:15:38;24.20;99.90
40932;DHT22;36257;46.052;12.540;2023-06-22T00:18:05;24.10;99.90
40932;DHT22;36257;46.052;12.540;2023-06-22T00:20:31;24.00;99.90
40932;DHT22;36257;46.052;12.540;2023-06-22T00:22:58;24.00;99.90
40932;DHT22;36257;46.052;12.540;2023-06-22T00:25:24;24.10;99.90
40932;DHT22;36257;46.052;12.540;2023-06-22T00:27:49;24.10;99.90
40932;DHT22;36257;46.052;12.540;2023-06-22T00:30:15;24.10;99.90
40932;DHT22;36257;46.052;12.540;2023-06-22T00:32:42;24.10;99.90
40932;DHT22;36257;46.052;12.540;2023-06-22T00:35:07;24.10;99.90
40932;DHT22;36257;46.052;12.540;2023-06-22T00:37:34;24.00;99.90
40932;DHT22;36257;46.052;12.540;2023-06-22T00:40:01;24.10;99.90
40932;DHT22;36257;46.052;12.540;2023-06-22T00:42:27;24.00;99.90
40932;DHT22;36257;46.052;12.540;2023-06-22T00:44:52;24.00;99.90
40932;DHT22;36257;46.052;12.540;2023-06-22T00:47:18;24.00;99.90
40932;DHT22;36257;46.052;12.540;2023-06-22T00:49:44;24.00;99.90
40932;DHT22;36257;46.052;12.540;2023-06-22T00:52:12;24.00;99.90
40932;DHT22;36257;46.052;12.540;2023-06-22T00:54:42;23.90;99.90
40932;DHT22;36257;46.052;12.540;2023-06-22T00:57:14;23.90;99.90
40932;DHT22;36257;46.052;12.540;2023-06-22T00:59:44;23.90;99.90
40932;DHT22;36257;46.052;12.540;2023-06-22T01:02:10;23.80;99.90
40932;DHT22;36257;46.052;12.540;2023-06-22T01:04:37;23.80;99.90
40932;DHT22;36257;46.052;12.540;2023-06-22T01:07:07;23.80;99.90
40932;DHT22;36257;46.052;12.540;2023-06-22T01:09:37;23.70;99.90
40932;DHT22;36257;46.052;12.540;2023-06-22T01:12:08;23.70;99.90
40932;DHT22;36257;46.052;12.540;2023-06-22T01:14:40;23.70;99.90
40932;DHT22;36257;46.052;12.540;2023-06-22T01:17:07;23.60;99.90
40932;DHT22;36257;46.052;12.540;2023-06-22T01:21:59;23.60;99.90
40932;DHT22;36257;46.052;12.540;2023-06-22T01:24:33;23.60;99.90
40932;DHT22;36257;46.052;12.540;2023-06-22T01:29:29;23.60;99.90
40932;DHT22;36257;46.052;12.540;2023-06-22T01:31:55;23.60;99.90
40932;DHT22;36257;46.052;12.540;2023-06-22T01:34:21;23.60;99.90
40932;DHT22;36257;46.052;12.540;2023-06-22T01:36:47;23.60;99.90
40932;DHT22;36257;46.052;12.540;2023-06-22T01:39:12;23.60;99.90
40932;DHT22;36257;46.052;12.540;2023-06-22T01:41:39;23.60;99.90
40932;DHT22;36257;46.052;12.540;2023-06-22T01:44:07;23.60;99.90
40932;DHT22;36257;46.052;12.540;2023-06-22T01:46:37;23.50;99.90
40932;DHT22;36257;46.052;12.540;2023-06-22T01:49:03;23.60;99.90
40932;DHT22;36257;46.052;12.540;2023-06-22T01:51:29;23.60;99.90
40932;DHT22;36257;46.052;12.540;2023-06-22T01:53:55;23.60;99.90
40932;DHT22;36257;46.052;12.540;2023-06-22T01:56:21;23.50;99.90
40932;DHT22;36257;46.052;12.540;2023-06-22T01:58:49;23.50;99.90
40932;DHT22;36257;46.052;12.540;2023-06-22T02:01:17;23.40;99.90
40932;DHT22;36257;46.052;12.540;2023-06-22T02:03:47;23.40;99.90
40932;DHT22;36257;46.052;12.540;2023-06-22T02:06:15;23.40;99.90
40932;DHT22;36257;46.052;12.540;2023-06-22T02:08:43;23.40;99.90
40932;DHT22;36257;46.052;12.540;2023-06-22T02:11:09;23.50;99.90
40932;DHT22;36257;46.052;12.540;2023-06-22T02:13:37;23.40;99.90
40932;DHT22;36257;46.052;12.540;2023-06-22T02:16:03;23.50;99.90
40932;DHT22;36257;46.052;12.540;2023-06-22T02:18:29;23.50;99.90
40932;DHT22;36257;46.052;12.540;2023-06-22T02:20:54;23.50;99.90
40932;DHT22;36257;46.052;12.540;2023-06-22T02:23:20;23.50;99.90
40932;DHT22;36257;46.052;12.540;2023-06-22T02:25:45;23.50;99.90
40932;DHT22;36257;46.052;12.540;2023-06-22T02:28:11;23.40;99.90
40932;DHT22;36257;46.052;12.540;2023-06-22T02:30:37;23.40;99.90
40932;DHT22;36257;46.052;12.540;2023-06-22T02:33:02;23.40;99.90
40932;DHT22;36257;46.052;12.540;2023-06-22T02:35:28;23.30;99.90
40932;DHT22;36257;46.052;12.540;2023-06-22T02:37:59;23.40;99.90
40932;DHT22;36257;46.052;12.540;2023-06-22T02:40:26;23.40;99.90
40932;DHT22;36257;46.052;12.540;2023-06-22T02:42:52;23.30;99.90
40932;DHT22;36257;46.052;12.540;2023-06-22T02:45:17;23.30;99.90
40932;DHT22;36257;46.052;12.540;2023-06-22T02:47:44;23.30;99.90
40932;DHT22;36257;46.052;12.540;2023-06-22T02:50:09;23.30;99.90
40932;DHT22;36257;46.052;12.540;2023-06-22T02:52:35;23.30;99.90
40932;DHT22;36257;46.052;12.540;2023-06-22T02:55:00;23.30;99.90
40932;DHT22;36257;46.052;12.540;2023-06-22T02:57:26;23.20;99.90
40932;DHT22;36257;46.052;12.540;2023-06-22T02:59:52;23.20;99.90
40932;DHT22;36257;46.052;12.540;2023-06-22T03:02:17;23.20;99.90
40932;DHT22;36257;46.052;12.540;2023-06-22T03:04:43;23.20;99.90
40932;DHT22;36257;46.052;12.540;2023-06-22T03:07:09;23.10;99.90
40932;DHT22;36257;46.052;12.540;2023-06-22T03:09:34;23.10;99.90
40932;DHT22;36257;46.052;12.540;2023-06-22T03:12:00;23.00;99.90
40932;DHT22;36257;46.052;12.540;2023-06-22T03:14:27;23.00;99.90
40932;DHT22;36257;46.052;12.540;2023-06-22T03:16:53;23.00;99.90
40932;DHT22;36257;46.052;12.540;2023-06-22T03:19:18;22.90;99.90
40932;DHT22;36257;46.052;12.540;2023-06-22T03:21:44;22.90;99.90
40932;DHT22;36257;46.052;12.540;2023-06-22T03:24:10;22.90;99.90
40932;DHT22;36257;46.052;12.540;2023-06-22T03:26:36;22.90;99.90
40932;DHT22;36257;46.052;12.540;2023-06-22T03:29:01;22.90;99.90
40932;DHT22;36257;46.052;12.540;2023-06-22T03:31:27;22.90;99.90
40932;DHT22;36257;46.052;12.540;2023-06-22T03:33:52;22.90;99.90
40932;DHT22;36257;46.052;12.540;2023-06-22T03:36:18;22.90;99.90
40932;DHT22;36257;46.052;12.540;2023-06-22T03:38:47;22.90;99.90
40932;DHT22;36257;46.052;12.540;2023-06-22T03:41:13;22.90;99.90
40932;DHT22;36257;46.052;12.540;2023-06-22T03:43:39;22.90;99.90
40932;DHT22;36257;46.052;12.540;2023-06-22T03:46:05;22.90;99.90
40932;DHT22;36257;46.052;12.540;2023-06-22T03:48:30;22.90;99.90
40932;DHT22;36257;46.052;12.540;2023-06-22T03:50:56;22.90;99.90
40932;DHT22;36257;46.052;12.540;2023-06-22T03:53:21;23.00;99.90
40932;DHT22;36257;46.052;12.540;2023-06-22T03:55:50;23.00;99.90
40932;DHT22;36257;46.052;12.540;2023-06-22T03:58:17;23.00;99.90
40932;DHT22;36257;46.052;12.540;2023-06-22T04:00:53;23.00;99.90
40932;DHT22;36257;46.052;12.540;2023-06-22T04:03:19;23.10;99.90
40932;DHT22;36257;46.052;12.540;2023-06-22T04:05:45;23.20;99.90
40932;DHT22;36257;46.052;12.540;2023-06-22T04:08:11;23.20;99.90
40932;DHT22;36257;46.052;12.540;2023-06-22T04:10:37;23.20;99.90
40932;DHT22;36257;46.052;12.540;2023-06-22T04:13:03;23.20;99.90
40932;DHT22;36257;46.052;12.540;2023-06-22T04:15:28;23.20;99.90
40932;DHT22;36257;46.052;12.540;2023-06-22T04:17:54;23.30;99.90
40932;DHT22;36257;46.052;12.540;2023-06-22T04:20:20;23.30;99.90
40932;DHT22;36257;46.052;12.540;2023-06-22T04:22:45;23.30;99.90
40932;DHT22;36257;46.052;12.540;2023-06-22T04:25:11;23.40;99.90
40932;DHT22;36257;46.052;12.540;2023-06-22T04:27:36;23.40;99.90
40932;DHT22;36257;46.052;12.540;2023-06-22T04:30:08;23.40;99.90
40932;DHT22;36257;46.052;12.540;2023-06-22T04:32:34;23.40;99.90
40932;DHT22;36257;46.052;12.540;2023-06-22T04:35:04;23.50;99.90
40932;DHT22;36257;46.052;12.540;2023-06-22T04:37:30;23.60;99.90
40932;DHT22;36257;46.052;12.540;2023-06-22T04:39:56;23.70;99.90
40932;DHT22;36257;46.052;12.540;2023-06-22T04:42:21;23.80;99.90
40932;DHT22;36257;46.052;12.540;2023-06-22T04:44:47;23.80;99.90
40932;DHT22;36257;46.052;12.540;2023-06-22T04:47:12;23.80;99.90
40932;DHT22;36257;46.052;12.540;2023-06-22T04:49:38;23.90;99.90
40932;DHT22;36257;46.052;12.540;2023-06-22T04:52:06;24.00;99.90
40932;DHT22;36257;46.052;12.540;2023-06-22T04:54:33;24.00;99.90
40932;DHT22;36257;46.052;12.540;2023-06-22T04:56:59;24.10;99.90
40932;DHT22;36257;46.052;12.540;2023-06-22T04:59:28;24.20;99.90
40932;DHT22;36257;46.052;12.540;2023-06-22T05:01:58;24.30;99.90
40932;DHT22;36257;46.052;12.540;2023-06-22T05:04:25;24.40;99.90
40932;DHT22;36257;46.052;12.540;2023-06-22T05:06:51;24.50;99.90
40932;DHT22;36257;46.052;12.540;2023-06-22T05:09:17;24.60;99.90
40932;DHT22;36257;46.052;12.540;2023-06-22T05:11:43;24.70;99.90
40932;DHT22;36257;46.052;12.540;2023-06-22T05:14:09;24.90;99.90
40932;DHT22;36257;46.052;12.540;2023-06-22T05:16:34;25.00;99.90
40932;DHT22;36257;46.052;12.540;2023-06-22T05:19:00;25.10;99.90
40932;DHT22;36257;46.052;12.540;2023-06-22T05:21:28;25.30;99.90
40932;DHT22;36257;46.052;12.540;2023-06-22T05:23:53;25.40;99.80
40932;DHT22;36257;46.052;12.540;2023-06-22T05:26:20;25.50;99.90
40932;DHT22;36257;46.052;12.540;2023-06-22T05:28:46;25.70;99.80
40932;DHT22;36257;46.052;12.540;2023-06-22T05:31:15;25.80;98.10
40932;DHT22;36257;46.052;12.540;2023-06-22T05:33:44;25.90;96.40
40932;DHT22;36257;46.052;12.540;2023-06-22T05:36:09;26.10;96.10
40932;DHT22;36257;46.052;12.540;2023-06-22T05:38:35;26.20;94.70
40932;DHT22;36257;46.052;12.540;2023-06-22T05:41:01;26.40;94.80
40932;DHT22;36257;46.052;12.540;2023-06-22T05:43:27;26.40;93.90
40932;DHT22;36257;46.052;12.540;2023-06-22T05:45:52;26.50;93.30
40932;DHT22;36257;46.052;12.540;2023-06-22T05:48:18;26.60;93.10
40932;DHT22;36257;46.052;12.540;2023-06-22T05:50:44;26.70;93.50
40932;DHT22;36257;46.052;12.540;2023-06-22T05:53:09;26.80;94.10
40932;DHT22;36257;46.052;12.540;2023-06-22T05:55:35;26.90;93.80
40932;DHT22;36257;46.052;12.540;2023-06-22T05:58:01;26.90;93.40
40932;DHT22;36257;46.052;12.540;2023-06-22T06:00:26;27.00;93.20
40932;DHT22;36257;46.052;12.540;2023-06-22T06:02:52;27.00;92.20
40932;DHT22;36257;46.052;12.540;2023-06-22T06:05:17;27.00;92.20
40932;DHT22;36257;46.052;12.540;2023-06-22T06:07:44;26.90;93.00
40932;DHT22;36257;46.052;12.540;2023-06-22T06:10:10;26.80;92.30
40932;DHT22;36257;46.052;12.540;2023-06-22T06:12:35;26.80;93.10
40932;DHT22;36257;46.052;12.540;2023-06-22T06:15:01;26.90;92.80
40932;DHT22;36257;46.052;12.540;2023-06-22T06:17:27;26.90;93.20
40932;DHT22;36257;46.052;12.540;2023-06-22T06:19:52;26.80;93.60
40932;DHT22;36257;46.052;12.540;2023-06-22T06:22:18;26.80;93.40
40932;DHT22;36257;46.052;12.540;2023-06-22T06:24:45;26.80;93.40
40932;DHT22;36257;46.052;12.540;2023-06-22T06:27:11;26.80;93.10
40932;DHT22;36257;46.052;12.540;2023-06-22T06:29:36;26.70;93.30
40932;DHT22;36257;46.052;12.540;2023-06-22T06:32:02;26.70;94.20
40932;DHT22;36257;46.052;12.540;2023-06-22T06:34:28;26.70;95.40
40932;DHT22;36257;46.052;12.540;2023-06-22T06:36:53;26.70;93.80
40932;DHT22;36257;46.052;12.540;2023-06-22T06:39:19;26.70;93.90
40932;DHT22;36257;46.052;12.540;2023-06-22T06:41:45;26.70;93.10
40932;DHT22;36257;46.052;12.540;2023-06-22T06:44:11;26.80;92.50
40932;DHT22;36257;46.052;12.540;2023-06-22T06:46:36;27.00;91.80
40932;DHT22;36257;46.052;12.540;2023-06-22T06:49:03;27.10;92.90
40932;DHT22;36257;46.052;12.540;2023-06-22T06:51:28;27.20;91.60
40932;DHT22;36257;46.052;12.540;2023-06-22T06:53:54;27.30;91.40
40932;DHT22;36257;46.052;12.540;2023-06-22T06:56:20;27.40;90.10
40932;DHT22;36257;46.052;12.540;2023-06-22T06:58:45;27.60;88.60
40932;DHT22;36257;46.052;12.540;2023-06-22T07:01:11;27.70;89.50
40932;DHT22;36257;46.052;12.540;2023-06-22T07:03:37;27.70;89.00
40932;DHT22;36257;46.052;12.540;2023-06-22T07:06:03;27.90;87.30
40932;DHT22;36257;46.052;12.540;2023-06-22T07:08:29;28.00;87.70
40932;DHT22;36257;46.052;12.540;2023-06-22T07:10:54;28.00;86.80
40932;DHT22;36257;46.052;12.540;2023-06-22T07:13:20;28.10;86.90
40932;DHT22;36257;46.052;12.540;2023-06-22T07:15:46;28.20;86.30
40932;DHT22;36257;46.052;12.540;2023-06-22T07:18:11;28.20;85.80
40932;DHT22;36257;46.052;12.540;2023-06-22T07:20:37;28.40;89.00
40932;DHT22;36257;46.052;12.540;2023-06-22T07:23:04;28.60;87.60
40932;DHT22;36257;46.052;12.540;2023-06-22T07:25:30;28.80;86.90
40932;DHT22;36257;46.052;12.540;2023-06-22T07:27:57;29.10;87.30
40932;DHT22;36257;46.052;12.540;2023-06-22T07:30:22;29.20;84.20
40932;DHT22;36257;46.052;12.540;2023-06-22T07:32:48;29.30;85.20
40932;DHT22;36257;46.052;12.540;2023-06-22T07:35:14;29.40;87.10
40932;DHT22;36257;46.052;12.540;2023-06-22T07:37:41;29.70;85.20
40932;DHT22;36257;46.052;12.540;2023-06-22T07:40:07;29.80;85.00
40932;DHT22;36257;46.052;12.540;2023-06-22T07:42:33;30.10;85.00
40932;DHT22;36257;46.052;12.540;2023-06-22T07:44:59;30.20;84.80
40932;DHT22;36257;46.052;12.540;2023-06-22T07:47:24;30.40;83.00
40932;DHT22;36257;46.052;12.540;2023-06-22T07:49:54;30.50;85.20
40932;DHT22;36257;46.052;12.540;2023-06-22T07:52:20;30.70;84.40
40932;DHT22;36257;46.052;12.540;2023-06-22T07:54:46;30.80;82.20
40932;DHT22;36257;46.052;12.540;2023-06-22T07:57:12;30.80;83.20
40932;DHT22;36257;46.052;12.540;2023-06-22T07:59:37;30.80;82.40
40932;DHT22;36257;46.052;12.540;2023-06-22T08:02:04;30.90;82.40
40932;DHT22;36257;46.052;12.540;2023-06-22T08:04:30;30.90;80.50
40932;DHT22;36257;46.052;12.540;2023-06-22T08:06:57;31.10;81.50
40932;DHT22;36257;46.052;12.540;2023-06-22T08:09:23;31.20;82.00
40932;DHT22;36257;46.052;12.540;2023-06-22T08:11:48;31.30;82.80
40932;DHT22;36257;46.052;12.540;2023-06-22T08:14:14;31.40;82.10
40932;DHT22;36257;46.052;12.540;2023-06-22T08:16:41;31.40;80.40
40932;DHT22;36257;46.052;12.540;2023-06-22T08:19:06;31.50;80.40
40932;DHT22;36257;46.052;12.540;2023-06-22T08:21:32;31.60;80.40
40932;DHT22;36257;46.052;12.540;2023-06-22T08:23:57;31.80;82.10
40932;DHT22;36257;46.052;12.540;2023-06-22T08:26:23;31.90;81.50
40932;DHT22;36257;46.052;12.540;2023-06-22T08:28:48;32.00;79.70
40932;DHT22;36257;46.052;12.540;2023-06-22T08:31:14;32.00;80.30
40932;DHT22;36257;46.052;12.540;2023-06-22T08:33:40;32.00;78.90
40932;DHT22;36257;46.052;12.540;2023-06-22T08:36:08;32.00;79.70
40932;DHT22;36257;46.052;12.540;2023-06-22T08:38:36;32.00;82.50
40932;DHT22;36257;46.052;12.540;2023-06-22T08:41:01;32.00;79.50
40932;DHT22;36257;46.052;12.540;2023-06-22T08:43:27;32.00;78.70
40932;DHT22;36257;46.052;12.540;2023-06-22T08:45:52;32.00;79.20
40932;DHT22;36257;46.052;12.540;2023-06-22T08:48:18;32.00;78.90
40932;DHT22;36257;46.052;12.540;2023-06-22T08:50:43;32.20;79.90
40932;DHT22;36257;46.052;12.540;2023-06-22T08:53:09;32.30;80.50
40932;DHT22;36257;46.052;12.540;2023-06-22T08:55:34;32.40;78.20
40932;DHT22;36257;46.052;12.540;2023-06-22T08:58:00;32.30;79.90
40932;DHT22;36257;46.052;12.540;2023-06-22T09:00:25;32.30;79.50
40932;DHT22;36257;46.052;12.540;2023-06-22T09:02:52;32.30;79.40
40932;DHT22;36257;46.052;12.540;2023-06-22T09:05:18;32.20;77.30
40932;DHT22;36257;46.052;12.540;2023-06-22T09:07:43;32.30;79.10
40932;DHT22;36257;46.052;12.540;2023-06-22T09:10:09;32.40;78.30
40932;DHT22;36257;46.052;12.540;2023-06-22T09:12:34;32.50;78.80
40932;DHT22;36257;46.052;12.540;2023-06-22T09:15:02;32.70;78.80
40932;DHT22;36257;46.052;12.540;2023-06-22T09:17:28;32.80;80.10
40932;DHT22;36257;46.052;12.540;2023-06-22T09:19:54;33.00;78.30
40932;DHT22;36257;46.052;12.540;2023-06-22T09:22:19;33.20;77.40
40932;DHT22;36257;46.052;12.540;2023-06-22T09:24:45;33.20;76.70
40932;DHT22;36257;46.052;12.540;2023-06-22T09:27:10;33.40;75.60
40932;DHT22;36257;46.052;12.540;2023-06-22T09:29:36;33.50;77.90
40932;DHT22;36257;46.052;12.540;2023-06-22T09:32:01;33.40;77.30
40932;DHT22;36257;46.052;12.540;2023-06-22T09:34:27;33.60;77.50
40932;DHT22;36257;46.052;12.540;2023-06-22T09:36:53;33.70;76.50
40932;DHT22;36257;46.052;12.540;2023-06-22T09:39:18;33.60;74.50
40932;DHT22;36257;46.052;12.540;2023-06-22T09:41:44;33.50;77.30
40932;DHT22;36257;46.052;12.540;2023-06-22T09:44:09;33.40;76.80
40932;DHT22;36257;46.052;12.540;2023-06-22T09:46:35;33.30;74.60
40932;DHT22;36257;46.052;12.540;2023-06-22T09:49:00;33.30;77.90
40932;DHT22;36257;46.052;12.540;2023-06-22T09:51:26;33.50;78.30
40932;DHT22;36257;46.052;12.540;2023-06-22T09:53:51;33.60;77.70
40932;DHT22;36257;46.052;12.540;2023-06-22T09:56:18;33.60;78.40
40932;DHT22;36257;46.052;12.540;2023-06-22T09:58:44;33.70;78.80
40932;DHT22;36257;46.052;12.540;2023-06-22T10:01:11;33.80;78.50
40932;DHT22;36257;46.052;12.540;2023-06-22T10:03:37;33.80;76.60
40932;DHT22;36257;46.052;12.540;2023-06-22T10:06:03;33.90;75.20
40932;DHT22;36257;46.052;12.540;2023-06-22T10:08:28;33.80;75.60
40932;DHT22;36257;46.052;12.540;2023-06-22T10:10:54;33.60;77.30
40932;DHT22;36257;46.052;12.540;2023-06-22T10:13:20;33.30;74.90
40932;DHT22;36257;46.052;12.540;2023-06-22T10:15:45;33.30;77.10
40932;DHT22;36257;46.052;12.540;2023-06-22T10:18:15;33.20;78.20
40932;DHT22;36257;46.052;12.540;2023-06-22T10:20:41;33.20;78.50
40932;DHT22;36257;46.052;12.540;2023-06-22T10:23:06;33.40;80.90
40932;DHT22;36257;46.052;12.540;2023-06-22T10:25:32;33.60;78.80
40932;DHT22;36257;46.052;12.540;2023-06-22T10:27:57;33.60;77.40
40932;DHT22;36257;46.052;12.540;2023-06-22T10:30:23;33.50;79.70
40932;DHT22;36257;46.052;12.540;2023-06-22T10:32:49;33.60;77.50
40932;DHT22;36257;46.052;12.540;2023-06-22T10:35:14;33.70;79.10
40932;DHT22;36257;46.052;12.540;2023-06-22T10:37:44;33.50;78.40
40932;DHT22;36257;46.052;12.540;2023-06-22T10:40:11;33.50;77.80
40932;DHT22;36257;46.052;12.540;2023-06-22T10:42:37;33.70;78.20
40932;DHT22;36257;46.052;12.540;2023-06-22T10:45:02;33.70;76.30
40932;DHT22;36257;46.052;12.540;2023-06-22T10:47:28;33.70;78.40
40932;DHT22;36257;46.052;12.540;2023-06-22T10:49:53;33.90;77.10
40932;DHT22;36257;46.052;12.540;2023-06-22T10:52:19;34.00;76.50
40932;DHT22;36257;46.052;12.540;2023-06-22T10:54:44;34.20;77.50
40932;DHT22;36257;46.052;12.540;2023-06-22T10:57:10;34.30;80.50
40932;DHT22;36257;46.052;12.540;2023-06-22T10:59:35;34.40;76.40
40932;DHT22;36257;46.052;12.540;2023-06-22T11:02:01;34.60;77.20
40932;DHT22;36257;46.052;12.540;2023-06-22T11:04:27;34.80;74.30
40932;DHT22;36257;46.052;12.540;2023-06-22T11:06:53;34.80;75.60
40932;DHT22;36257;46.052;12.540;2023-06-22T11:09:18;35.00;76.70
40932;DHT22;36257;46.052;12.540;2023-06-22T11:11:50;35.30;76.90
40932;DHT22;36257;46.052;12.540;2023-06-22T11:14:18;35.30;76.10
40932;DHT22;36257;46.052;12.540;2023-06-22T11:16:44;35.20;73.60
40932;DHT22;36257;46.052;12.540;2023-06-22T11:19:09;35.00;74.60
40932;DHT22;36257;46.052;12.540;2023-06-22T11:21:35;34.90;75.50
40932;DHT22;36257;46.052;12.540;2023-06-22T11:24:00;34.80;73.90
40932;DHT22;36257;46.052;12.540;2023-06-22T11:26:26;34.90;76.20
40932;DHT22;36257;46.052;12.540;2023-06-22T11:28:53;35.10;76.50
40932;DHT22;36257;46.052;12.540;2023-06-22T11:31:18;35.40;75.70
40932;DHT22;36257;46.052;12.540;2023-06-22T11:33:44;35.50;73.90
40932;DHT22;36257;46.052;12.540;2023-06-22T11:36:11;35.30;74.50
40932;DHT22;36257;46.052;12.540;2023-06-22T11:38:37;35.30;73.10
40932;DHT22;36257;46.052;12.540;2023-06-22T11:41:07;35.30;74.10
40932;DHT22;36257;46.052;12.540;2023-06-22T11:43:33;35.40;73.70
40932;DHT22;36257;46.052;12.540;2023-06-22T11:45:59;35.20;73.00
40932;DHT22;36257;46.052;12.540;2023-06-22T11:48:24;35.30;72.90
40932;DHT22;36257;46.052;12.540;2023-06-22T11:50:50;35.40;75.50
40932;DHT22;36257;46.052;12.540;2023-06-22T11:53:15;35.50;72.80
40932;DHT22;36257;46.052;12.540;2023-06-22T11:55:45;35.50;72.90
40932;DHT22;36257;46.052;12.540;2023-06-22T11:58:11;35.60;75.40
40932;DHT22;36257;46.052;12.540;2023-06-22T12:00:36;35.20;72.20
40932;DHT22;36257;46.052;12.540;2023-06-22T12:03:02;35.40;74.60
40932;DHT22;36257;46.052;12.540;2023-06-22T12:05:28;35.70;73.50
40932;DHT22;36257;46.052;12.540;2023-06-22T12:07:53;35.90;72.50
40932;DHT22;36257;46.052;12.540;2023-06-22T12:10:20;36.10;73.50
40932;DHT22;36257;46.052;12.540;2023-06-22T12:12:45;36.20;73.70
40932;DHT22;36257;46.052;12.540;2023-06-22T12:15:11;36.50;70.90
40932;DHT22;36257;46.052;12.540;2023-06-22T12:17:36;36.60;71.20
40932;DHT22;36257;46.052;12.540;2023-06-22T12:20:02;36.60;72.30
40932;DHT22;36257;46.052;12.540;2023-06-22T12:22:34;36.40;69.90
40932;DHT22;36257;46.052;12.540;2023-06-22T12:24:59;36.20;70.70
40932;DHT22;36257;46.052;12.540;2023-06-22T12:27:25;36.20;69.50
40932;DHT22;36257;46.052;12.540;2023-06-22T12:29:51;36.10;69.50
40932;DHT22;36257;46.052;12.540;2023-06-22T12:32:16;36.00;70.20
40932;DHT22;36257;46.052;12.540;2023-06-22T12:34:42;36.20;71.10
40932;DHT22;36257;46.052;12.540;2023-06-22T12:37:08;36.00;69.90
40932;DHT22;36257;46.052;12.540;2023-06-22T12:39:33;36.10;71.70
40932;DHT22;36257;46.052;12.540;2023-06-22T12:41:59;36.20;70.80
40932;DHT22;36257;46.052;12.540;2023-06-22T12:44:25;36.20;70.30
40932;DHT22;36257;46.052;12.540;2023-06-22T12:46:50;36.20;69.10
40932;DHT22;36257;46.052;12.540;2023-06-22T12:49:16;36.00;70.20
40932;DHT22;36257;46.052;12.540;2023-06-22T12:51:41;36.00;72.20
40932;DHT22;36257;46.052;12.540;2023-06-22T12:54:07;36.20;71.30
40932;DHT22;36257;46.052;12.540;2023-06-22T12:56:33;36.30;70.80
40932;DHT22;36257;46.052;12.540;2023-06-22T12:58:58;36.40;70.50
40932;DHT22;36257;46.052;12.540;2023-06-22T13:01:27;36.50;73.20
40932;DHT22;36257;46.052;12.540;2023-06-22T13:03:52;36.30;70.70
40932;DHT22;36257;46.052;12.540;2023-06-22T13:06:18;36.20;69.90
40932;DHT22;36257;46.052;12.540;2023-06-22T13:08:43;36.10;71.80
40932;DHT22;36257;46.052;12.540;2023-06-22T13:11:09;35.90;71.90
40932;DHT22;36257;46.052;12.540;2023-06-22T13:13:35;36.00;70.70
40932;DHT22;36257;46.052;12.540;2023-06-22T13:16:00;36.00;71.30
40932;DHT22;36257;46.052;12.540;2023-06-22T13:18:26;36.10;72.50
40932;DHT22;36257;46.052;12.540;2023-06-22T13:20:52;36.00;70.20
40932;DHT22;36257;46.052;12.540;2023-06-22T13:23:20;36.10;74.20
40932;DHT22;36257;46.052;12.540;2023-06-22T13:25:46;36.20;69.10
40932;DHT22;36257;46.052;12.540;2023-06-22T13:28:11;36.10;69.80
40932;DHT22;36257;46.052;12.540;2023-06-22T13:30:39;36.00;70.90
40932;DHT22;36257;46.052;12.540;2023-06-22T13:33:05;36.00;70.20
40932;DHT22;36257;46.052;12.540;2023-06-22T13:35:31;36.10;70.80
40932;DHT22;36257;46.052;12.540;2023-06-22T13:37:56;36.20;71.00
40932;DHT22;36257;46.052;12.540;2023-06-22T13:40:22;36.40;71.80
40932;DHT22;36257;46.052;12.540;2023-06-22T13:42:47;36.40;68.30
40932;DHT22;36257;46.052;12.540;2023-06-22T13:45:13;36.40;69.30
40932;DHT22;36257;46.052;12.540;2023-06-22T13:47:38;36.20;71.00
40932;DHT22;36257;46.052;12.540;2023-06-22T13:50:04;36.10;68.10
40932;DHT22;36257;46.052;12.540;2023-06-22T13:52:30;35.80;69.10
40932;DHT22;36257;46.052;12.540;2023-06-22T13:54:55;35.80;69.30
40932;DHT22;36257;46.052;12.540;2023-06-22T13:57:21;35.90;70.00
40932;DHT22;36257;46.052;12.540;2023-06-22T13:59:46;35.90;69.30
40932;DHT22;36257;46.052;12.540;2023-06-22T14:02:12;35.80;70.20
40932;DHT22;36257;46.052;12.540;2023-06-22T14:04:38;35.80;71.90
40932;DHT22;36257;46.052;12.540;2023-06-22T14:07:03;35.80;72.30
40932;DHT22;36257;46.052;12.540;2023-06-22T14:09:29;35.90;68.90
40932;DHT22;36257;46.052;12.540;2023-06-22T14:11:54;35.90;70.20
40932;DHT22;36257;46.052;12.540;2023-06-22T14:14:20;35.80;72.80
40932;DHT22;36257;46.052;12.540;2023-06-22T14:16:46;35.80;69.80
40932;DHT22;36257;46.052;12.540;2023-06-22T14:19:13;35.80;70.80
40932;DHT22;36257;46.052;12.540;2023-06-22T14:21:38;35.80;69.80
40932;DHT22;36257;46.052;12.540;2023-06-22T14:24:04;35.80;71.50
40932;DHT22;36257;46.052;12.540;2023-06-22T14:26:29;35.60;68.80
40932;DHT22;36257;46.052;12.540;2023-06-22T14:28:55;35.60;69.20
40932;DHT22;36257;46.052;12.540;2023-06-22T14:31:22;35.50;70.30
40932;DHT22;36257;46.052;12.540;2023-06-22T14:33:48;35.40;70.90
40932;DHT22;36257;46.052;12.540;2023-06-22T14:36:13;35.30;71.70
40932;DHT22;36257;46.052;12.540;2023-06-22T14:38:39;35.30;70.70
40932;DHT22;36257;46.052;12.540;2023-06-22T14:41:04;35.30;70.70
40932;DHT22;36257;46.052;12.540;2023-06-22T14:43:30;35.30;71.40
40932;DHT22;36257;46.052;12.540;2023-06-22T14:45:55;35.30;71.50
40932;DHT22;36257;46.052;12.540;2023-06-22T14:48:21;35.30;68.20
40932;DHT22;36257;46.052;12.540;2023-06-22T14:50:47;35.20;68.80
40932;DHT22;36257;46.052;12.540;2023-06-22T14:53:12;35.20;69.20
40932;DHT22;36257;46.052;12.540;2023-06-22T14:55:39;35.00;70.50
40932;DHT22;36257;46.052;12.540;2023-06-22T14:58:05;34.90;70.50
40932;DHT22;36257;46.052;12.540;2023-06-22T15:00:30;34.90;69.40
40932;DHT22;36257;46.052;12.540;2023-06-22T15:02:56;34.80;71.30
40932;DHT22;36257;46.052;12.540;2023-06-22T15:05:21;34.70;71.90
40932;DHT22;36257;46.052;12.540;2023-06-22T15:07:49;34.70;70.70
40932;DHT22;36257;46.052;12.540;2023-06-22T15:10:15;34.60;71.60
40932;DHT22;36257;46.052;12.540;2023-06-22T15:12:40;34.40;71.60